Derby, Kansas
Current Conditions -  °F | °C
As of 5:58 AM on Thursday 27 Nov 2014 (Local Time) from KIAB Reporting Station
Clear Clear  
Wind Chill: 18°   Ceiling: Unl
Heat Index: 24°   Visibility: 10mi
Dew Point: 20°   Wind: 5mph
Humidity: 85%   Direction: 20°NNE
Pressure: 30.49"   Gusts: NA
Location:  37.54°N, 97.27°W
Report Text: KIAB 271158Z AUTO 02004KT 10SM CLR M04/M07 A3049 RMK AO2 SLP341 T10451066 11004 21056 50009
Loading
Personal Weather Stations






























Interactive Weather Map New forecast layout! Learn more

10-Day Weather Forecast

Advertisements
Track Severe Weather on mobile